Delta Virtual Airport Information Service

Orlando International Airport

ICAO: KMCO Country: United States
Latitude: 28.4294 Longitude: -81.3089
Latest Arrival : DAL1058 (1A) (KATL-KMCO) Latest Departure : AAL1194 (B) (KMCO-KMIA)


WX CaptureLIVE
Data provided by noaa.gov | Fetched at 09:03:32

METAR : KMCO 041353Z 00000KT 10SM FEW030 FEW250 31/25 A2998 RMK AO2 SLP151 T03060250

TAF : KMCO 041126Z 0412/0518 VRB03KT P6SM SCT050 SCT070 FM041400 25007KT P6SM SCT030 FM041800 22008KT P6SM VCTS SCT035CB BKN060 BKN250 TEMPO 0419/0422 3SM TSRA BKN030CB FM050200 19003KT P6SM FEW050 BKN250 FM051500 22005KT P6SM SCT035 SCT100


Runway Data for KMCO
Data provided by openaviationdata.com

Runway ID Mag Var Hdg Length Elevation Surface ILS Freq ILS Id ILS Slope
17L -5 184° 9025 ft 96 ft Concrete 110.95 IARK 3
17R -5 184° 10027 ft 96 ft Concrete 111.75 IDIZ 3
18L -5 184° 12037 ft 96 ft Asphalt -- -- --
18R -5 184° 12037 ft 96 ft Concrete 111.9 ITFE 3
35L -5 10027 ft 96 ft Concrete 110.5 IDDO 3
35R -5 9025 ft 96 ft Concrete 111.15 ICER 3
36L -5 12037 ft 96 ft Concrete -- -- --
36R -5 12037 ft 96 ft Asphalt 110.7 IOJP 3

Orlando International Airport, United States
Use only for reference purposes



Not for navigational purposes.